Time;durP1;ratioP1;P1;durP2;ratioP2;P2;SDS_P1;SDS_P2;PMS_P1;PMS_P2;Temp;Humidity;BMP_temperature;BMP_pressure;BME280_temperature;BME280_humidity;BME280_pressure;Samples;Min_cycle;Max_cycle;Signal;HPM_P1;HPM_P2
2021/03/18 00:01:15;;;;;;;6.63;5.77;;;0.80;99.90;;;;;;5057770;28;20430;-82
2021/03/18 00:03:42;;;;;;;7.10;5.73;;;1.20;99.90;;;;;;5057404;28;20418;-82
2021/03/18 00:06:08;;;;;;;7.10;4.70;;;1.20;99.90;;;;;;5057321;28;20420;-82
2021/03/18 00:08:35;;;;;;;5.63;5.03;;;0.80;99.90;;;;;;5057718;28;20935;-82
2021/03/18 00:11:04;;;;;;;5.67;4.93;;;1.40;99.90;;;;;;5057980;28;20436;-82
2021/03/18 00:13:30;;;;;;;5.40;4.67;;;1.20;99.90;;;;;;5075838;28;20416;-81
2021/03/18 00:15:57;;;;;;;5.53;4.60;;;1.30;99.90;;;;;;5057176;28;20429;-81
2021/03/18 00:18:32;;;;;;;6.43;5.60;;;1.30;99.90;;;;;;5056936;28;20999;-81
2021/03/18 00:21:00;;;;;;;8.70;6.80;;;1.40;99.90;;;;;;5056981;28;20480;-81
2021/03/18 00:23:26;;;;;;;13.00;6.47;;;1.40;99.90;;;;;;5056878;28;20424;-82
2021/03/18 00:25:51;;;;;;;9.47;6.70;;;0.90;99.90;;;;;;5057031;28;20433;-82
2021/03/18 00:28:17;;;;;;;7.63;6.00;;;1.40;99.90;;;;;;5055838;28;20417;-82
2021/03/18 00:30:43;;;;;;;7.67;6.23;;;1.60;99.90;;;;;;5059054;28;20183;-81
2021/03/18 00:33:08;;;;;;;8.80;6.20;;;1.40;99.90;;;;;;5081173;28;20183;-81
2021/03/18 00:35:34;;;;;;;7.70;5.77;;;0.90;99.90;;;;;;5062924;28;20237;-82
2021/03/18 00:38:01;;;;;;;7.43;5.90;;;1.30;99.90;;;;;;5082587;28;20183;-82
2021/03/18 00:40:30;;;;;;;9.43;6.63;;;1.50;99.90;;;;;;5078631;28;20664;-81
2021/03/18 00:42:59;;;;;;;8.10;6.50;;;1.50;99.90;;;;;;5057203;28;20422;-82
2021/03/18 00:45:28;;;;;;;7.43;6.40;;;1.10;99.90;;;;;;5056807;28;20510;-82
2021/03/18 00:47:54;;;;;;;6.10;5.40;;;1.40;99.90;;;;;;5056767;28;20508;-82
2021/03/18 00:50:30;;;;;;;6.30;5.27;;;1.40;99.90;;;;;;5056436;28;20414;-82
2021/03/18 00:52:56;;;;;;;9.70;5.20;;;1.40;99.90;;;;;;5074867;28;20470;-81
2021/03/18 00:55:23;;;;;;;5.30;4.90;;;1.50;99.90;;;;;;5074265;28;20418;-82
2021/03/18 00:57:49;;;;;;;6.50;5.90;;;1.00;99.90;;;;;;5056338;28;20512;-82
2021/03/18 01:00:21;;;;;;;6.17;5.57;;;1.20;99.90;;;;;;5055992;28;20488;-82
2021/03/18 01:02:48;;;;;;;5.47;4.57;;;1.40;99.90;;;;;;5056426;28;20220;-81
2021/03/18 01:05:22;;;;;;;7.60;6.03;;;1.30;99.90;;;;;;5058928;28;20429;-81
2021/03/18 01:07:48;;;;;;;5.97;4.70;;;1.40;99.90;;;;;;5075831;28;20933;-82
2021/03/18 01:10:15;;;;;;;6.70;5.20;;;1.30;99.90;;;;;;5058474;28;20514;-82
2021/03/18 01:12:41;;;;;;;6.10;5.30;;;1.40;99.90;;;;;;5058144;28;20179;-82
2021/03/18 01:15:07;;;;;;;8.40;5.10;;;1.50;99.90;;;;;;5057222;28;20444;-82
2021/03/18 01:17:34;;;;;;;5.43;4.20;;;1.60;99.90;;;;;;5073568;28;20227;-81
2021/03/18 01:20:00;;;;;;;6.27;5.67;;;1.60;99.90;;;;;;5055928;28;20487;-82
2021/03/18 01:22:26;;;;;;;8.30;6.30;;;1.50;99.90;;;;;;5056248;28;20416;-81
2021/03/18 01:24:54;;;;;;;6.13;4.67;;;1.30;99.90;;;;;;5055855;28;20863;-82
2021/03/18 01:27:23;;;;;;;5.47;4.10;;;1.10;99.90;;;;;;5055799;28;20202;-81
2021/03/18 01:29:50;;;;;;;6.83;5.80;;;1.40;99.90;;;;;;5055675;28;20789;-82
2021/03/18 01:32:16;;;;;;;5.10;4.50;;;1.50;99.90;;;;;;5055739;28;20508;-81
2021/03/18 01:34:41;;;;;;;9.10;4.90;;;1.50;99.90;;;;;;5055639;28;20520;-82
2021/03/18 01:37:07;;;;;;;5.50;4.70;;;1.10;99.90;;;;;;5073442;28;20429;-82
2021/03/18 01:39:33;;;;;;;10.97;5.97;;;1.10;99.90;;;;;;5073177;28;20248;-82
2021/03/18 01:41:58;;;;;;;4.80;4.40;;;1.60;99.90;;;;;;5055417;28;20175;-81
2021/03/18 01:44:24;;;;;;;7.80;4.90;;;1.60;99.90;;;;;;5074203;28;20580;-82
2021/03/18 01:46:50;;;;;;;6.63;5.23;;;1.40;99.90;;;;;;5073449;28;20410;-82
2021/03/18 01:49:17;;;;;;;5.27;4.77;;;1.10;99.90;;;;;;5055512;28;20183;-82
2021/03/18 01:51:43;;;;;;;5.13;4.23;;;1.40;99.90;;;;;;5055248;28;20183;-81
2021/03/18 01:54:10;;;;;;;5.10;4.60;;;1.20;99.90;;;;;;5055045;28;20426;-82
2021/03/18 01:56:35;;;;;;;6.63;5.07;;;1.30;99.90;;;;;;5055317;28;20309;-82
2021/03/18 01:59:01;;;;;;;7.60;5.07;;;1.40;99.90;;;;;;5073491;28;20556;-81
2021/03/18 02:01:27;;;;;;;11.50;5.93;;;1.10;99.90;;;;;;5081628;28;20172;-81
2021/03/18 02:03:52;;;;;;;6.83;5.10;;;1.20;99.90;;;;;;5059746;28;20175;-81
2021/03/18 02:06:19;;;;;;;7.37;5.10;;;1.00;99.90;;;;;;5057144;28;20178;-81
2021/03/18 02:08:44;;;;;;;5.23;4.73;;;1.20;99.90;;;;;;5055343;28;20172;-81
2021/03/18 02:11:10;;;;;;;7.53;5.47;;;0.90;99.90;;;;;;5073426;28;20428;-82
2021/03/18 02:13:35;;;;;;;10.40;5.93;;;0.90;99.90;;;;;;5055103;28;20262;-81
2021/03/18 02:16:12;;;;;;;7.80;6.17;;;0.90;99.90;;;;;;5055309;28;20701;-81
2021/03/18 02:19:09;;;;;;;6.30;5.50;;;1.40;99.90;;;;;;5055257;28;20214;-81
2021/03/18 02:21:37;;;;;;;6.43;4.80;;;1.30;99.90;;;;;;5054870;28;20428;-81
2021/03/18 02:24:26;;;;;;;8.90;5.50;;;1.40;99.90;;;;;;5054815;28;20426;-81
2021/03/18 02:27:10;;;;;;;6.00;5.40;;;1.30;99.90;;;;;;5054619;28;20429;-81
2021/03/18 02:30:02;;;;;;;10.20;5.50;;;1.40;99.90;;;;;;5072763;28;20401;-81
2021/03/18 02:32:58;;;;;;;7.93;5.23;;;1.60;99.90;;;;;;5054637;28;20421;-82
2021/03/18 02:35:34;;;;;;;6.90;4.77;;;1.50;99.90;;;;;;5054604;28;20611;-81
2021/03/18 02:38:16;;;;;;;4.23;3.83;;;1.60;99.90;;;;;;5072139;28;20429;-81
2021/03/18 02:40:45;;;;;;;4.30;3.97;;;1.50;99.90;;;;;;5072413;28;20854;-82
2021/03/18 02:43:14;;;;;;;4.57;4.13;;;1.30;99.90;;;;;;5054396;28;20945;-81
2021/03/18 02:45:47;;;;;;;5.87;3.80;;;1.20;99.90;;;;;;5054434;28;20421;-81
2021/03/18 02:48:20;;;;;;;4.63;4.03;;;1.40;99.90;;;;;;5072485;28;20471;-82
2021/03/18 02:50:47;;;;;;;6.93;4.80;;;1.40;99.90;;;;;;5071703;28;20405;-81
2021/03/18 02:53:17;;;;;;;6.53;4.40;;;0.90;99.90;;;;;;5072279;28;20414;-81
2021/03/18 02:55:45;;;;;;;4.60;4.20;;;1.20;99.90;;;;;;5054329;28;21055;-81
2021/03/18 02:58:14;;;;;;;7.10;5.00;;;1.30;99.90;;;;;;5072092;28;20429;-81
2021/03/18 03:00:41;;;;;;;8.10;4.80;;;1.40;99.90;;;;;;5053968;28;20476;-81
2021/03/18 03:03:07;;;;;;;4.90;4.37;;;1.40;99.90;;;;;;5054336;28;20417;-81
2021/03/18 03:05:34;;;;;;;5.43;4.63;;;1.60;99.90;;;;;;5054310;28;20491;-82
2021/03/18 03:08:01;;;;;;;5.50;4.10;;;1.50;99.90;;;;;;5072395;28;20414;-82
2021/03/18 03:10:28;;;;;;;5.13;4.67;;;1.40;99.90;;;;;;5055688;28;20421;-82
2021/03/18 03:12:56;;;;;;;5.93;4.13;;;1.50;99.90;;;;;;5079326;28;20413;-82
2021/03/18 03:15:22;;;;;;;7.80;4.50;;;1.20;99.90;;;;;;5058517;28;20429;-81
2021/03/18 03:17:47;;;;;;;7.20;4.77;;;1.20;99.90;;;;;;5073394;28;20812;-83
2021/03/18 03:20:15;;;;;;;7.97;5.37;;;1.10;99.90;;;;;;5054106;28;20487;-81
2021/03/18 03:22:43;;;;;;;7.60;4.70;;;1.60;99.90;;;;;;5058198;28;20179;-82
2021/03/18 03:25:11;;;;;;;6.50;4.53;;;1.00;99.90;;;;;;5062105;28;20434;-82
2021/03/18 03:27:37;;;;;;;5.83;4.60;;;1.40;99.90;;;;;;5059063;28;20500;-82
2021/03/18 03:30:07;;;;;;;4.10;3.80;;;1.40;99.90;;;;;;5055008;28;20452;-81
2021/03/18 03:32:35;;;;;;;5.50;3.90;;;1.50;99.90;;;;;;5054261;28;20543;-81
2021/03/18 03:35:04;;;;;;;7.23;5.17;;;1.40;99.90;;;;;;5054101;28;20421;-81
2021/03/18 03:37:30;;;;;;;4.83;4.37;;;1.70;99.90;;;;;;5054134;28;20449;-82
2021/03/18 03:39:56;;;;;;;6.47;5.47;;;1.40;99.90;;;;;;5053769;28;20504;-81
2021/03/18 03:42:23;;;;;;;6.47;4.77;;;1.60;99.90;;;;;;5071882;28;20164;-81
2021/03/18 03:44:49;;;;;;;6.10;4.13;;;1.60;99.90;;;;;;5072059;28;20428;-82
2021/03/18 03:47:15;;;;;;;7.20;4.80;;;1.60;99.90;;;;;;5053857;28;20406;-81
2021/03/18 03:49:42;;;;;;;8.60;5.07;;;1.80;99.90;;;;;;5054336;28;20445;-81
2021/03/18 03:52:33;;;;;;;5.60;4.03;;;1.50;99.90;;;;;;5053922;28;20881;-81
2021/03/18 03:55:32;;;;;;;5.00;4.50;;;1.60;99.90;;;;;;5071886;28;20513;-81
2021/03/18 03:58:06;;;;;;;8.60;6.37;;;1.60;99.90;;;;;;5053716;28;20528;-81
2021/03/18 04:00:35;;;;;;;6.60;4.87;;;1.70;99.90;;;;;;5053599;28;20510;-82
2021/03/18 04:03:05;;;;;;;8.03;4.50;;;1.60;99.90;;;;;;5057272;28;20822;-81
2021/03/18 04:05:31;;;;;;;6.00;5.40;;;1.70;99.90;;;;;;5057435;28;20832;-82
2021/03/18 04:08:02;;;;;;;6.20;5.60;;;1.50;99.90;;;;;;5057320;28;20786;-81
2021/03/18 04:10:29;;;;;;;7.27;5.97;;;1.60;99.90;;;;;;5075306;28;20452;-81
2021/03/18 04:12:57;;;;;;;6.07;5.47;;;1.30;99.90;;;;;;5057193;28;20765;-81
2021/03/18 04:15:23;;;;;;;6.27;5.67;;;1.50;99.90;;;;;;5057446;28;20888;-81
2021/03/18 04:17:52;;;;;;;8.77;6.07;;;1.60;99.90;;;;;;5057146;28;20466;-82
2021/03/18 04:20:21;;;;;;;5.30;4.40;;;1.50;99.90;;;;;;5057835;28;20485;-81
2021/03/18 04:22:51;;;;;;;5.37;4.73;;;1.40;99.90;;;;;;5057187;28;20425;-81
2021/03/18 04:25:18;;;;;;;9.37;6.30;;;1.30;99.90;;;;;;5057347;28;20574;-81
2021/03/18 04:27:45;;;;;;;7.90;6.40;;;1.50;99.90;;;;;;5076054;28;20416;-81
2021/03/18 04:30:13;;;;;;;6.40;5.67;;;1.50;99.90;;;;;;5075016;28;20467;-81
2021/03/18 04:32:40;;;;;;;7.43;6.73;;;1.50;99.90;;;;;;5075507;28;20420;-82
2021/03/18 04:35:08;;;;;;;6.83;5.97;;;1.40;99.90;;;;;;5056943;28;20945;-81
2021/03/18 04:37:35;;;;;;;9.00;8.20;;;1.50;99.90;;;;;;5057049;28;20428;-81
2021/03/18 04:40:05;;;;;;;11.63;6.60;;;1.30;99.90;;;;;;5056718;28;20479;-81
2021/03/18 04:42:30;;;;;;;7.10;6.50;;;1.50;99.90;;;;;;5075393;28;20533;-81
2021/03/18 04:44:57;;;;;;;7.27;5.80;;;1.50;99.90;;;;;;5058991;28;20520;-81
2021/03/18 04:47:24;;;;;;;7.00;6.33;;;1.60;99.90;;;;;;5064028;28;21247;-81
2021/03/18 04:49:50;;;;;;;7.00;5.57;;;1.60;99.90;;;;;;5080271;28;20483;-82
2021/03/18 04:52:17;;;;;;;9.30;6.10;;;1.50;99.90;;;;;;5076260;28;20463;-81
2021/03/18 04:54:44;;;;;;;7.60;5.93;;;1.60;99.90;;;;;;5057105;28;20443;-81
2021/03/18 04:57:10;;;;;;;9.57;7.30;;;1.60;99.90;;;;;;5056341;28;20530;-81
2021/03/18 04:59:37;;;;;;;7.07;6.37;;;1.60;99.90;;;;;;5056276;28;20576;-81
2021/03/18 05:02:05;;;;;;;7.07;6.07;;;1.60;99.90;;;;;;5056295;28;20420;-81
2021/03/18 05:04:33;;;;;;;8.07;6.13;;;1.60;99.90;;;;;;5058450;28;20929;-82
2021/03/18 05:06:59;;;;;;;8.17;6.53;;;1.60;99.90;;;;;;5057757;28;20416;-82
2021/03/18 05:09:26;;;;;;;8.53;6.10;;;1.60;99.90;;;;;;5058070;28;20429;-81
2021/03/18 05:11:53;;;;;;;7.63;6.83;;;1.50;99.90;;;;;;5074438;28;20509;-82
2021/03/18 05:14:19;;;;;;;9.17;6.00;;;1.50;99.90;;;;;;5055610;28;20425;-81
2021/03/18 05:16:46;;;;;;;10.00;6.87;;;1.10;99.90;;;;;;5056485;28;20935;-82
2021/03/18 05:19:12;;;;;;;7.77;6.97;;;1.60;99.90;;;;;;5056853;28;20475;-82
2021/03/18 05:21:39;;;;;;;21.93;17.50;;;1.50;99.90;;;;;;5056163;28;20432;-82
2021/03/18 05:24:11;;;;;;;8.67;7.87;;;1.50;99.90;;;;;;5058867;28;20433;-84
2021/03/18 05:26:37;;;;;;;9.07;6.60;;;1.50;99.90;;;;;;5055894;28;20474;-81
2021/03/18 05:29:03;;;;;;;10.30;8.77;;;1.40;99.90;;;;;;5074016;28;20414;-80
2021/03/18 05:31:29;;;;;;;12.20;9.93;;;1.60;99.90;;;;;;5073842;28;20258;-81
2021/03/18 05:33:54;;;;;;;20.03;13.10;;;1.60;99.90;;;;;;5073765;28;20886;-81
2021/03/18 05:36:20;;;;;;;12.00;10.27;;;1.60;99.90;;;;;;5073764;28;20231;-82
2021/03/18 05:38:47;;;;;;;20.50;14.10;;;1.60;99.90;;;;;;5073627;28;20203;-81
2021/03/18 05:41:13;;;;;;;9.97;8.63;;;1.40;99.90;;;;;;5055613;28;20438;-82
2021/03/18 05:43:38;;;;;;;16.50;9.87;;;1.40;99.90;;;;;;5055590;28;20425;-79
2021/03/18 05:46:04;;;;;;;9.20;7.60;;;1.40;99.90;;;;;;5074072;28;20225;-81
2021/03/18 05:48:30;;;;;;;8.63;7.73;;;1.60;99.90;;;;;;5058593;28;20171;-78
2021/03/18 05:50:57;;;;;;;8.43;7.60;;;1.50;99.90;;;;;;5060098;28;20211;-80
2021/03/18 05:53:23;;;;;;;14.43;9.43;;;1.60;99.90;;;;;;5075262;28;20539;-80
2021/03/18 05:55:52;;;;;;;12.63;9.10;;;1.80;99.90;;;;;;5056766;28;20433;-83
2021/03/18 05:58:20;;;;;;;10.00;8.87;;;1.70;99.90;;;;;;5073105;28;20420;-77
2021/03/18 06:00:48;;;;;;;11.10;9.30;;;1.80;99.90;;;;;;5073650;28;20469;-82
2021/03/18 06:03:14;;;;;;;13.10;9.63;;;1.60;99.90;;;;;;5055202;28;20457;-82
2021/03/18 06:05:41;;;;;;;10.07;8.93;;;1.30;99.90;;;;;;5056081;28;20422;-84
2021/03/18 06:08:09;;;;;;;12.10;8.03;;;1.50;99.90;;;;;;5077255;28;20435;-82
2021/03/18 06:10:35;;;;;;;14.80;9.70;;;1.60;99.90;;;;;;5057801;28;20425;-82
2021/03/18 06:13:01;;;;;;;9.80;8.80;;;1.20;99.90;;;;;;5056061;28;20422;-83
2021/03/18 06:15:27;;;;;;;11.23;10.17;;;1.70;99.90;;;;;;5055189;28;20428;-82
2021/03/18 06:17:54;;;;;;;19.80;10.00;;;1.70;99.90;;;;;;5073020;28;20421;-83
2021/03/18 06:20:22;;;;;;;11.43;9.23;;;1.70;99.90;;;;;;5055299;28;20556;-82
2021/03/18 06:22:49;;;;;;;15.03;11.00;;;1.90;99.90;;;;;;5055399;28;20421;-82
2021/03/18 06:25:31;;;;;;;10.50;9.53;;;1.60;99.90;;;;;;5054323;28;20429;-80
2021/03/18 06:28:23;;;;;;;11.13;9.80;;;1.90;99.90;;;;;;5064080;28;20414;-81
2021/03/18 06:31:14;;;;;;;10.70;8.53;;;1.70;99.90;;;;;;5054810;28;20777;-79
2021/03/18 06:33:44;;;;;;;10.47;8.83;;;1.90;99.90;;;;;;5047393;28;20426;-81
2021/03/18 06:36:30;;;;;;;10.27;9.17;;;1.90;99.90;;;;;;5047016;28;20435;-83
2021/03/18 06:39:16;;;;;;;11.97;9.67;;;2.20;99.90;;;;;;5033754;28;21092;-81
2021/03/18 06:41:48;;;;;;;12.00;8.73;;;2.10;99.90;;;;;;5073718;28;20402;-81
2021/03/18 06:44:34;;;;;;;11.33;9.17;;;2.20;99.90;;;;;;5055071;28;20428;-81
2021/03/18 06:47:09;;;;;;;13.50;9.07;;;1.70;99.90;;;;;;5051738;28;20456;-80
2021/03/18 06:49:35;;;;;;;9.90;8.47;;;1.70;99.90;;;;;;5069455;28;20460;-81
2021/03/18 06:52:11;;;;;;;15.50;11.10;;;1.90;99.90;;;;;;5071881;28;20414;-82
2021/03/18 06:54:40;;;;;;;10.90;9.07;;;2.00;99.90;;;;;;5065300;28;20429;-81
2021/03/18 06:57:06;;;;;;;8.83;6.53;;;1.90;99.90;;;;;;5063444;28;20989;-83
2021/03/18 06:59:34;;;;;;;13.80;8.73;;;2.00;99.90;;;;;;5071937;28;20485;-82
2021/03/18 07:02:03;;;;;;;10.13;8.73;;;2.30;99.90;;;;;;5071193;28;20552;-81
2021/03/18 07:04:43;;;;;;;11.33;9.20;;;2.20;99.90;;;;;;5064372;28;20437;-81
2021/03/18 07:07:10;;;;;;;10.90;8.60;;;2.40;99.90;;;;;;5069568;28;20444;-80
2021/03/18 07:09:38;;;;;;;9.50;8.60;;;2.70;99.90;;;;;;5070449;28;20428;-83
2021/03/18 07:12:06;;;;;;;13.00;10.80;;;2.60;99.90;;;;;;5070150;28;20943;-82
2021/03/18 07:14:44;;;;;;;13.23;11.83;;;2.50;99.90;;;;;;5070957;28;20445;-80
2021/03/18 07:17:17;;;;;;;13.73;11.40;;;2.90;99.90;;;;;;5069984;28;20924;-82
2021/03/18 07:19:42;;;;;;;12.43;9.53;;;3.50;99.90;;;;;;5070670;28;20524;-82
2021/03/18 07:22:19;;;;;;;10.07;8.50;;;3.60;99.90;;;;;;5070994;28;20908;-79
2021/03/18 07:24:53;;;;;;;10.70;7.37;;;3.90;99.90;;;;;;5071380;28;20186;-82
2021/03/18 07:27:18;;;;;;;7.87;7.17;;;4.10;99.90;;;;;;5072840;28;20470;-82
2021/03/18 07:29:49;;;;;;;7.73;6.67;;;4.40;99.90;;;;;;5065028;28;20516;-80
2021/03/18 07:32:15;;;;;;;10.03;9.00;;;4.50;99.90;;;;;;5072842;28;20171;-82
2021/03/18 07:34:43;;;;;;;8.40;7.50;;;4.60;99.90;;;;;;5054964;28;20430;-81
2021/03/18 07:37:12;;;;;;;6.43;5.93;;;4.70;99.90;;;;;;5056414;28;20421;-81
2021/03/18 07:39:40;;;;;;;7.13;6.43;;;5.40;99.90;;;;;;5057165;28;20468;-83
2021/03/18 07:42:07;;;;;;;9.93;7.93;;;5.50;99.90;;;;;;5057310;28;20501;-83
2021/03/18 07:44:35;;;;;;;8.83;7.80;;;5.80;99.90;;;;;;5057145;28;20921;-84
2021/03/18 07:47:02;;;;;;;8.37;7.13;;;5.60;99.90;;;;;;5075234;28;20806;-82
2021/03/18 07:49:36;;;;;;;7.97;7.17;;;6.40;99.90;;;;;;5074669;28;20422;-82
2021/03/18 07:52:04;;;;;;;7.13;6.40;;;6.70;99.90;;;;;;5057149;28;20773;-82
2021/03/18 07:54:32;;;;;;;7.20;6.50;;;7.00;99.90;;;;;;5074851;28;20409;-82
2021/03/18 07:56:58;;;;;;;6.53;5.90;;;7.50;99.90;;;;;;5075633;28;20504;-83
2021/03/18 07:59:33;;;;;;;5.70;4.87;;;7.60;99.90;;;;;;5074717;28;20563;-83
2021/03/18 08:02:14;;;;;;;6.40;5.80;;;7.60;99.90;;;;;;5073974;28;20414;-82
2021/03/18 08:04:42;;;;;;;5.00;4.60;;;8.00;99.90;;;;;;5058797;28;20229;-81
2021/03/18 08:07:08;;;;;;;5.97;5.37;;;8.30;99.90;;;;;;5056957;28;20921;-84
2021/03/18 08:09:33;;;;;;;4.73;4.33;;;8.60;99.90;;;;;;5056890;28;20518;-84
2021/03/18 08:11:59;;;;;;;7.00;6.40;;;8.30;99.90;;;;;;5057352;28;20923;-82
2021/03/18 08:14:25;;;;;;;5.70;5.20;;;7.20;99.90;;;;;;5074535;28;20186;-81
2021/03/18 08:16:51;;;;;;;5.47;4.10;;;6.90;99.90;;;;;;5056635;28;20178;-82
2021/03/18 08:19:18;;;;;;;5.07;4.10;;;7.20;99.90;;;;;;5056396;28;20205;-82
2021/03/18 08:21:49;;;;;;;4.63;4.23;;;6.90;99.90;;;;;;5056664;28;20420;-83
2021/03/18 08:24:21;;;;;;;5.50;5.00;;;6.50;99.90;;;;;;5074660;28;20445;-82
2021/03/18 08:26:58;;;;;;;5.67;5.17;;;6.50;99.90;;;;;;5057552;28;20449;-82
2021/03/18 08:29:40;;;;;;;5.93;5.43;;;6.30;99.90;;;;;;5063564;28;20460;-83
2021/03/18 08:32:28;;;;;;;6.27;5.77;;;6.30;99.90;;;;;;5080602;28;20511;-82
2021/03/18 08:34:59;;;;;;;6.63;4.93;;;6.50;99.90;;;;;;5076940;28;20421;-83
2021/03/18 08:37:44;;;;;;;6.20;5.60;;;6.40;99.90;;;;;;5055834;28;20489;-82
2021/03/18 08:40:18;;;;;;;4.97;4.57;;;6.30;99.90;;;;;;5055886;28;20469;-82
2021/03/18 08:42:48;;;;;;;6.90;5.47;;;6.10;99.90;;;;;;5065986;28;20424;-82
2021/03/18 08:45:20;;;;;;;6.60;6.00;;;6.10;99.90;;;;;;5061264;28;20436;-82
2021/03/18 08:47:51;;;;;;;9.40;4.93;;;5.80;99.90;;;;;;5071337;28;20750;-82
2021/03/18 08:50:23;;;;;;;8.07;5.07;;;5.50;99.90;;;;;;5069642;28;20445;-82
2021/03/18 08:52:49;;;;;;;7.63;5.17;;;5.70;99.90;;;;;;5067279;28;20468;-81
2021/03/18 08:55:34;;;;;;;6.00;5.17;;;6.40;99.90;;;;;;5063892;28;20422;-81
2021/03/18 08:58:00;;;;;;;4.47;4.07;;;6.70;99.90;;;;;;5075233;28;20171;-82
2021/03/18 09:00:26;;;;;;;4.97;4.57;;;6.50;99.90;;;;;;5073968;28;20481;-81
2021/03/18 09:02:52;;;;;;;5.63;4.33;;;6.40;99.90;;;;;;5055711;28;20424;-81
2021/03/18 09:05:19;;;;;;;6.70;6.10;;;6.60;99.90;;;;;;5055629;28;20646;-81
2021/03/18 09:07:47;;;;;;;4.63;4.23;;;6.10;99.90;;;;;;5075313;28;20172;-82
2021/03/18 09:10:24;;;;;;;5.50;4.30;;;6.70;99.90;;;;;;5056961;28;20436;-82
2021/03/18 09:13:02;;;;;;;5.53;4.90;;;7.40;99.90;;;;;;5073420;28;20417;-81
2021/03/18 09:15:32;;;;;;;9.53;5.90;;;7.90;99.90;;;;;;5072697;28;20417;-82
2021/03/18 09:18:17;;;;;;;4.83;4.43;;;8.50;92.20;;;;;;5072057;28;20424;-82
2021/03/18 09:20:49;;;;;;;4.87;4.33;;;9.30;68.50;;;;;;5072482;28;20445;-81
2021/03/18 09:23:21;;;;;;;5.37;4.43;;;9.70;1.00;;;;;;5071885;28;20766;-82
2021/03/18 09:25:51;;;;;;;6.00;4.70;;;10.10;1.00;;;;;;5039997;28;21468;-82
2021/03/18 09:28:18;;;;;;;5.20;4.80;;;10.60;1.00;;;;;;5067199;28;20425;-82
2021/03/18 09:30:46;;;;;;;5.83;5.33;;;10.60;1.00;;;;;;5072049;28;20470;-81
2021/03/18 09:33:31;;;;;;;5.17;4.87;;;11.00;99.90;;;;;;5072011;28;20449;-79
2021/03/18 09:36:01;;;;;;;5.40;4.90;;;11.50;99.90;;;;;;5072681;28;20500;-83
2021/03/18 09:38:29;;;;;;;6.80;5.10;;;12.30;1.00;;;;;;5073481;28;20504;-82
2021/03/18 09:40:58;;;;;;;5.90;5.37;;;12.20;99.90;;;;;;5054428;28;20430;-83
2021/03/18 09:43:26;;;;;;;5.77;5.37;;;10.90;1.00;;;;;;5054752;28;20457;-83
2021/03/18 09:46:00;;;;;;;5.13;4.40;;;11.80;99.90;;;;;;5072003;28;20432;-82
2021/03/18 09:48:33;;;;;;;3.90;3.60;;;10.90;1.00;;;;;;5072482;28;20490;-81
2021/03/18 09:51:28;;;;;;;3.63;3.33;;;11.20;1.00;;;;;;5072278;28;20418;-83
2021/03/18 09:54:05;;;;;;;6.60;4.40;;;10.90;99.90;;;;;;5058509;28;20455;-77
2021/03/18 09:56:42;;;;;;;4.60;4.20;;;11.70;99.90;;;;;;5072987;28;20909;-82
2021/03/18 09:59:11;;;;;;;4.00;3.70;;;11.00;99.90;;;;;;5071884;28;20481;-82
2021/03/18 10:01:37;;;;;;;7.27;5.10;;;11.30;99.90;;;;;;5070990;28;20414;-82
2021/03/18 10:04:08;;;;;;;9.63;5.07;;;11.80;99.90;;;;;;5070482;28;20468;-83
2021/03/18 10:06:59;;;;;;;4.40;4.10;;;12.00;99.90;;;;;;5072300;28;20421;-83
2021/03/18 10:09:31;;;;;;;10.40;7.67;;;11.70;21.90;;;;;;5070652;28;20486;-82
2021/03/18 10:11:56;;;;;;;4.63;4.33;;;11.70;1.00;;;;;;5070537;28;20429;-84
2021/03/18 10:14:54;;;;;;;4.17;3.87;;;11.60;1.00;;;;;;5070369;28;20456;-82
2021/03/18 10:17:26;;;;;;;5.50;5.00;;;12.70;1.00;;;;;;5071529;28;20205;-83
2021/03/18 10:20:14;;;;;;;4.93;4.33;;;12.90;1.00;;;;;;5070319;28;20477;-81
2021/03/18 10:23:06;;;;;;;4.60;4.30;;;12.60;1.00;;;;;;5035881;28;20825;-82
2021/03/18 10:25:35;;;;;;;5.23;4.70;;;11.70;1.00;;;;;;5042898;28;20409;-83
2021/03/18 10:28:11;;;;;;;6.83;4.30;;;11.40;1.00;;;;;;5071639;28;20416;-82
2021/03/18 10:30:43;;;;;;;5.37;4.40;;;11.40;1.00;;;;;;5053599;28;20427;-79
2021/03/18 10:33:15;;;;;;;6.37;4.60;;;11.80;1.00;;;;;;5053677;28;20417;-83
2021/03/18 10:35:56;;;;;;;18.30;6.00;;;12.20;1.00;;;;;;5053617;28;20428;-81
2021/03/18 10:38:31;;;;;;;6.40;4.30;;;12.50;1.00;;;;;;5071514;28;20422;-82
2021/03/18 10:41:05;;;;;;;8.60;5.20;;;13.20;1.00;;;;;;5071337;28;20420;-82
2021/03/18 10:43:33;;;;;;;7.97;5.30;;;13.60;1.00;;;;;;5054692;28;20850;-82
2021/03/18 10:46:02;;;;;;;5.57;4.60;;;13.10;1.00;;;;;;5052582;28;20479;-83
2021/03/18 10:48:31;;;;;;;6.23;5.73;;;12.60;1.00;;;;;;5069902;28;20430;-82
2021/03/18 10:51:09;;;;;;;8.13;5.37;;;12.70;1.00;;;;;;5071256;28;20429;-83
2021/03/18 10:53:37;;;;;;;7.20;4.70;;;13.00;1.00;;;;;;5070926;28;20413;-82
2021/03/18 10:56:04;;;;;;;4.30;3.90;;;13.00;1.00;;;;;;5070885;28;20414;-83
2021/03/18 10:58:30;;;;;;;10.37;5.60;;;12.80;1.00;;;;;;5069823;28;20421;-83
2021/03/18 11:00:59;;;;;;;5.30;4.80;;;13.00;1.00;;;;;;5070720;28;20467;-83
2021/03/18 11:03:31;;;;;;;5.30;4.97;;;13.00;1.00;;;;;;5069557;28;20479;-82
2021/03/18 11:05:57;;;;;;;4.93;4.43;;;13.10;1.00;;;;;;5070141;28;20935;-83
2021/03/18 11:08:31;;;;;;;12.30;5.10;;;13.90;1.00;;;;;;5069981;28;20421;-85
2021/03/18 11:11:00;;;;;;;5.63;5.10;;;14.10;99.90;;;;;;5071529;28;20521;-82
2021/03/18 11:13:28;;;;;;;5.70;5.07;;;13.90;99.90;;;;;;5071049;28;20429;-76
2021/03/18 11:16:21;;;;;;;12.60;5.97;;;12.70;99.90;;;;;;5071160;28;20475;-81
2021/03/18 11:18:48;;;;;;;11.03;5.47;;;11.40;1.00;;;;;;5061813;28;20469;-82
2021/03/18 11:21:24;;;;;;;16.00;5.30;;;10.40;1.00;;;;;;5068369;28;20528;-81
2021/03/18 11:23:53;;;;;;;9.80;5.40;;;9.90;1.00;;;;;;5073325;28;20496;-83
2021/03/18 11:26:21;;;;;;;10.23;5.33;;;9.80;1.00;;;;;;5054066;28;20877;-83
2021/03/18 11:28:59;;;;;;;5.70;5.20;;;9.60;99.90;;;;;;5053488;28;20410;-83
2021/03/18 11:31:27;;;;;;;8.90;6.50;;;8.50;3.00;;;;;;5054151;28;20520;-82
2021/03/18 11:33:53;;;;;;;7.37;5.13;;;7.70;1.00;;;;;;5054202;28;20416;-83
2021/03/18 11:36:19;;;;;;;4.43;4.03;;;6.50;12.30;;;;;;5072313;28;20421;-82
2021/03/18 11:38:46;;;;;;;6.20;4.50;;;6.70;47.00;;;;;;5056280;28;20461;-81
2021/03/18 11:41:12;;;;;;;4.93;4.53;;;6.80;53.80;;;;;;5072553;28;20599;-82
2021/03/18 11:43:39;;;;;;;7.63;4.83;;;6.50;48.80;;;;;;5055007;28;20508;-82
2021/03/18 11:46:05;;;;;;;6.00;5.13;;;5.80;90.70;;;;;;5055168;28;20518;-82
2021/03/18 11:48:31;;;;;;;6.00;5.40;;;5.90;99.90;;;;;;5072715;28;20418;-80
2021/03/18 11:50:57;;;;;;;5.53;5.03;;;5.40;99.90;;;;;;5054625;28;20576;-82
2021/03/18 11:53:24;;;;;;;4.17;3.77;;;5.60;99.90;;;;;;5054001;28;20421;-82
2021/03/18 11:55:50;;;;;;;5.93;4.43;;;5.30;99.90;;;;;;5071998;28;20420;-82
2021/03/18 11:58:16;;;;;;;6.13;5.20;;;5.20;99.90;;;;;;5054739;28;20490;-82
2021/03/18 12:00:42;;;;;;;7.57;6.67;;;5.20;99.90;;;;;;5053490;28;20488;-83
2021/03/18 12:03:10;;;;;;;5.33;4.73;;;5.10;99.90;;;;;;5068909;28;20191;-82
2021/03/18 12:05:37;;;;;;;9.47;7.50;;;4.90;99.90;;;;;;5075064;28;20237;-81
2021/03/18 12:08:04;;;;;;;8.70;5.57;;;4.60;99.90;;;;;;5071476;28;20781;-81
2021/03/18 12:10:30;;;;;;;9.90;7.20;;;4.20;99.90;;;;;;5061268;28;20429;-79
2021/03/18 12:12:56;;;;;;;9.20;6.33;;;4.50;99.90;;;;;;5048237;28;20640;-82
2021/03/18 12:15:21;;;;;;;7.37;5.97;;;4.40;99.90;;;;;;5071369;28;20524;-81
2021/03/18 12:17:47;;;;;;;6.37;5.80;;;4.10;99.90;;;;;;5070436;28;20266;-81
2021/03/18 12:20:21;;;;;;;6.60;5.60;;;4.20;99.90;;;;;;5064720;28;20210;-81
2021/03/18 12:22:48;;;;;;;6.23;5.43;;;4.50;99.90;;;;;;5057376;28;20174;-83
2021/03/18 12:25:15;;;;;;;6.83;5.97;;;4.20;99.90;;;;;;5074694;28;20429;-82
2021/03/18 12:27:41;;;;;;;8.80;6.83;;;4.50;99.90;;;;;;5054156;28;20414;-81
2021/03/18 12:30:10;;;;;;;9.13;5.77;;;4.50;99.90;;;;;;5061651;28;20429;-81
2021/03/18 12:32:36;;;;;;;8.47;5.23;;;4.50;99.90;;;;;;5071123;28;20828;-82
2021/03/18 12:35:03;;;;;;;4.60;4.17;;;4.30;99.90;;;;;;5072364;28;20429;-81
2021/03/18 12:37:29;;;;;;;6.87;4.73;;;4.10;99.90;;;;;;5070114;28;20194;-82
2021/03/18 12:39:55;;;;;;;6.73;5.80;;;3.80;99.90;;;;;;5072724;28;20528;-82
2021/03/18 12:42:20;;;;;;;6.87;5.17;;;4.30;99.90;;;;;;5054969;28;20168;-81
2021/03/18 12:44:46;;;;;;;7.07;5.70;;;4.50;99.90;;;;;;5089656;28;20209;-82
2021/03/18 12:47:12;;;;;;;5.27;4.77;;;4.40;99.90;;;;;;5045723;28;20190;-83
2021/03/18 12:49:38;;;;;;;8.10;5.27;;;4.70;99.90;;;;;;5074235;28;20178;-80
2021/03/18 12:52:05;;;;;;;7.00;6.30;;;4.50;99.90;;;;;;5049409;28;20756;-82
2021/03/18 12:54:32;;;;;;;7.57;6.77;;;4.40;99.90;;;;;;5073042;28;20421;-82
2021/03/18 12:56:58;;;;;;;7.97;5.67;;;4.10;99.90;;;;;;5077923;28;20429;-81
2021/03/18 12:59:24;;;;;;;8.97;6.53;;;4.50;99.90;;;;;;5053728;28;20480;-81
2021/03/18 13:01:49;;;;;;;8.57;6.30;;;4.60;99.90;;;;;;5072170;28;20764;-81
2021/03/18 13:04:15;;;;;;;8.90;7.13;;;4.50;99.90;;;;;;5071109;28;20187;-82
2021/03/18 13:06:42;;;;;;;5.73;5.00;;;4.80;99.90;;;;;;5064252;28;20176;-81
2021/03/18 13:09:08;;;;;;;6.40;5.80;;;5.10;99.90;;;;;;5089709;28;20191;-82